sensor_id;sensor_type;location;lat;lon;timestamp;temperature;humidity
64034;SHT31;50280;49.864;8.638;2022-12-07T00:00:08;3.26;89.90
64034;SHT31;50280;49.864;8.638;2022-12-07T00:02:41;3.25;89.83
64034;SHT31;50280;49.864;8.638;2022-12-07T00:05:15;3.23;89.78
64034;SHT31;50280;49.864;8.638;2022-12-07T00:07:48;3.25;89.85
64034;SHT31;50280;49.864;8.638;2022-12-07T00:10:21;3.23;89.81
64034;SHT31;50280;49.864;8.638;2022-12-07T00:12:53;3.26;89.86
64034;SHT31;50280;49.864;8.638;2022-12-07T00:15:26;3.25;89.85
64034;SHT31;50280;49.864;8.638;2022-12-07T00:17:58;3.23;89.99
64034;SHT31;50280;49.864;8.638;2022-12-07T00:20:32;3.23;89.95
64034;SHT31;50280;49.864;8.638;2022-12-07T00:23:05;3.26;89.91
64034;SHT31;50280;49.864;8.638;2022-12-07T00:25:37;3.26;89.95
64034;SHT31;50280;49.864;8.638;2022-12-07T00:28:09;3.22;89.89
64034;SHT31;50280;49.864;8.638;2022-12-07T00:30:42;3.23;89.91
64034;SHT31;50280;49.864;8.638;2022-12-07T00:33:14;3.23;89.95
64034;SHT31;50280;49.864;8.638;2022-12-07T00:35:55;3.23;89.90
64034;SHT31;50280;49.864;8.638;2022-12-07T00:38:30;3.22;89.90
64034;SHT31;50280;49.864;8.638;2022-12-07T00:41:06;3.20;89.86
64034;SHT31;50280;49.864;8.638;2022-12-07T00:43:43;3.20;89.97
64034;SHT31;50280;49.864;8.638;2022-12-07T00:46:18;3.22;89.92
64034;SHT31;50280;49.864;8.638;2022-12-07T00:48:53;3.22;90.01
64034;SHT31;50280;49.864;8.638;2022-12-07T00:51:27;3.20;90.02
64034;SHT31;50280;49.864;8.638;2022-12-07T00:54:00;3.22;90.04
64034;SHT31;50280;49.864;8.638;2022-12-07T00:56:32;3.18;90.06
64034;SHT31;50280;49.864;8.638;2022-12-07T00:59:05;3.19;90.07
64034;SHT31;50280;49.864;8.638;2022-12-07T01:01:38;3.19;90.17
64034;SHT31;50280;49.864;8.638;2022-12-07T01:04:10;3.18;90.05
64034;SHT31;50280;49.864;8.638;2022-12-07T01:06:44;3.18;90.17
64034;SHT31;50280;49.864;8.638;2022-12-07T01:09:16;3.18;90.17
64034;SHT31;50280;49.864;8.638;2022-12-07T01:11:49;3.13;90.21
64034;SHT31;50280;49.864;8.638;2022-12-07T01:14:21;3.13;90.28
64034;SHT31;50280;49.864;8.638;2022-12-07T01:16:53;3.13;90.40
64034;SHT31;50280;49.864;8.638;2022-12-07T01:19:26;3.11;90.49
64034;SHT31;50280;49.864;8.638;2022-12-07T01:21:59;3.11;90.52
64034;SHT31;50280;49.864;8.638;2022-12-07T01:24:32;3.11;90.58
64034;SHT31;50280;49.864;8.638;2022-12-07T01:27:04;3.12;90.58
64034;SHT31;50280;49.864;8.638;2022-12-07T01:29:36;3.12;90.51
64034;SHT31;50280;49.864;8.638;2022-12-07T01:32:09;3.15;90.43
64034;SHT31;50280;49.864;8.638;2022-12-07T01:34:41;3.19;90.35
64034;SHT31;50280;49.864;8.638;2022-12-07T01:37:15;3.16;90.31
64034;SHT31;50280;49.864;8.638;2022-12-07T01:39:48;3.16;90.29
64034;SHT31;50280;49.864;8.638;2022-12-07T01:42:21;3.19;90.23
64034;SHT31;50280;49.864;8.638;2022-12-07T01:45:37;3.20;90.06
64034;SHT31;50280;49.864;8.638;2022-12-07T01:48:14;3.22;90.09
64034;SHT31;50280;49.864;8.638;2022-12-07T01:50:53;3.19;90.13
64034;SHT31;50280;49.864;8.638;2022-12-07T01:53:36;3.20;90.13
64034;SHT31;50280;49.864;8.638;2022-12-07T01:56:17;3.18;90.23
64034;SHT31;50280;49.864;8.638;2022-12-07T01:58:57;3.16;90.25
64034;SHT31;50280;49.864;8.638;2022-12-07T02:01:32;3.13;90.33
64034;SHT31;50280;49.864;8.638;2022-12-07T02:04:05;3.12;90.53
64034;SHT31;50280;49.864;8.638;2022-12-07T02:06:38;3.12;90.58
64034;SHT31;50280;49.864;8.638;2022-12-07T02:09:14;3.12;90.63
64034;SHT31;50280;49.864;8.638;2022-12-07T02:11:47;3.12;90.64
64034;SHT31;50280;49.864;8.638;2022-12-07T02:14:20;3.12;90.67
64034;SHT31;50280;49.864;8.638;2022-12-07T02:17:01;3.15;90.74
64034;SHT31;50280;49.864;8.638;2022-12-07T02:20:13;3.15;90.59
64034;SHT31;50280;49.864;8.638;2022-12-07T02:23:10;3.15;90.60
64034;SHT31;50280;49.864;8.638;2022-12-07T02:30:09;3.16;90.30
64034;SHT31;50280;49.864;8.638;2022-12-07T02:32:50;3.15;90.23
64034;SHT31;50280;49.864;8.638;2022-12-07T02:35:33;3.15;90.15
64034;SHT31;50280;49.864;8.638;2022-12-07T02:38:16;3.16;90.06
64034;SHT31;50280;49.864;8.638;2022-12-07T02:41:04;3.18;90.03
64034;SHT31;50280;49.864;8.638;2022-12-07T02:43:46;3.18;90.07
64034;SHT31;50280;49.864;8.638;2022-12-07T02:46:30;3.22;90.08
64034;SHT31;50280;49.864;8.638;2022-12-07T02:49:08;3.22;90.04
64034;SHT31;50280;49.864;8.638;2022-12-07T02:51:45;3.22;89.91
64034;SHT31;50280;49.864;8.638;2022-12-07T02:54:20;3.22;89.87
64034;SHT31;50280;49.864;8.638;2022-12-07T02:56:57;3.20;89.87
64034;SHT31;50280;49.864;8.638;2022-12-07T02:59:48;3.20;89.78
64034;SHT31;50280;49.864;8.638;2022-12-07T03:02:42;3.22;89.70
64034;SHT31;50280;49.864;8.638;2022-12-07T03:05:36;3.23;89.48
64034;SHT31;50280;49.864;8.638;2022-12-07T03:08:39;3.22;89.56
64034;SHT31;50280;49.864;8.638;2022-12-07T03:11:32;3.23;89.91
64034;SHT31;50280;49.864;8.638;2022-12-07T03:14:19;3.20;90.15
64034;SHT31;50280;49.864;8.638;2022-12-07T03:17:05;3.19;89.95
64034;SHT31;50280;49.864;8.638;2022-12-07T03:19:46;3.18;90.33
64034;SHT31;50280;49.864;8.638;2022-12-07T03:22:28;3.13;90.78
64034;SHT31;50280;49.864;8.638;2022-12-07T03:25:09;3.13;91.03
64034;SHT31;50280;49.864;8.638;2022-12-07T03:27:46;3.13;90.59
64034;SHT31;50280;49.864;8.638;2022-12-07T03:30:27;3.13;90.72
64034;SHT31;50280;49.864;8.638;2022-12-07T03:33:09;3.13;90.75
64034;SHT31;50280;49.864;8.638;2022-12-07T03:35:57;3.13;90.95
64034;SHT31;50280;49.864;8.638;2022-12-07T03:38:40;3.12;91.14
64034;SHT31;50280;49.864;8.638;2022-12-07T03:41:22;3.12;91.26
64034;SHT31;50280;49.864;8.638;2022-12-07T03:43:58;3.11;91.31
64034;SHT31;50280;49.864;8.638;2022-12-07T03:46:36;3.12;91.43
64034;SHT31;50280;49.864;8.638;2022-12-07T03:49:23;3.11;91.58
64034;SHT31;50280;49.864;8.638;2022-12-07T03:52:08;3.09;91.44
64034;SHT31;50280;49.864;8.638;2022-12-07T03:54:57;3.11;91.70
64034;SHT31;50280;49.864;8.638;2022-12-07T03:57:38;3.09;91.79
64034;SHT31;50280;49.864;8.638;2022-12-07T04:00:15;3.09;91.97
64034;SHT31;50280;49.864;8.638;2022-12-07T04:02:52;3.11;92.14
64034;SHT31;50280;49.864;8.638;2022-12-07T04:05:25;3.11;92.24
64034;SHT31;50280;49.864;8.638;2022-12-07T04:07:59;3.12;92.37
64034;SHT31;50280;49.864;8.638;2022-12-07T04:10:32;3.09;92.35
64034;SHT31;50280;49.864;8.638;2022-12-07T04:13:04;3.11;92.29
64034;SHT31;50280;49.864;8.638;2022-12-07T04:15:36;3.12;92.33
64034;SHT31;50280;49.864;8.638;2022-12-07T04:18:09;3.11;92.18
64034;SHT31;50280;49.864;8.638;2022-12-07T04:20:41;3.09;92.07
64034;SHT31;50280;49.864;8.638;2022-12-07T04:23:15;3.09;91.96
64034;SHT31;50280;49.864;8.638;2022-12-07T04:25:48;3.12;92.01
64034;SHT31;50280;49.864;8.638;2022-12-07T04:28:20;3.12;91.95
64034;SHT31;50280;49.864;8.638;2022-12-07T04:30:52;3.12;91.98
64034;SHT31;50280;49.864;8.638;2022-12-07T04:33:25;3.11;91.83
64034;SHT31;50280;49.864;8.638;2022-12-07T04:35:57;3.12;91.83
64034;SHT31;50280;49.864;8.638;2022-12-07T04:38:31;3.15;91.70
64034;SHT31;50280;49.864;8.638;2022-12-07T04:41:05;3.13;91.70
64034;SHT31;50280;49.864;8.638;2022-12-07T04:43:38;3.11;91.55
64034;SHT31;50280;49.864;8.638;2022-12-07T04:46:11;3.12;91.45
64034;SHT31;50280;49.864;8.638;2022-12-07T04:48:43;3.13;91.28
64034;SHT31;50280;49.864;8.638;2022-12-07T04:51:19;3.12;91.37
64034;SHT31;50280;49.864;8.638;2022-12-07T04:53:55;3.15;91.36
64034;SHT31;50280;49.864;8.638;2022-12-07T04:56:28;3.15;91.41
64034;SHT31;50280;49.864;8.638;2022-12-07T04:59:02;3.16;91.37
64034;SHT31;50280;49.864;8.638;2022-12-07T05:01:35;3.16;91.31
64034;SHT31;50280;49.864;8.638;2022-12-07T05:04:08;3.16;91.24
64034;SHT31;50280;49.864;8.638;2022-12-07T05:06:42;3.18;91.35
64034;SHT31;50280;49.864;8.638;2022-12-07T05:09:15;3.18;91.28
64034;SHT31;50280;49.864;8.638;2022-12-07T05:11:48;3.16;91.42
64034;SHT31;50280;49.864;8.638;2022-12-07T05:14:21;3.18;91.48
64034;SHT31;50280;49.864;8.638;2022-12-07T05:16:53;3.19;91.47
64034;SHT31;50280;49.864;8.638;2022-12-07T05:19:25;3.18;91.47
64034;SHT31;50280;49.864;8.638;2022-12-07T05:21:58;3.16;91.48
64034;SHT31;50280;49.864;8.638;2022-12-07T05:24:32;3.22;91.53
64034;SHT31;50280;49.864;8.638;2022-12-07T05:27:04;3.19;91.30
64034;SHT31;50280;49.864;8.638;2022-12-07T05:29:36;3.19;91.36
64034;SHT31;50280;49.864;8.638;2022-12-07T05:32:09;3.19;91.38
64034;SHT31;50280;49.864;8.638;2022-12-07T05:34:41;3.19;91.32
64034;SHT31;50280;49.864;8.638;2022-12-07T05:37:14;3.19;91.29
64034;SHT31;50280;49.864;8.638;2022-12-07T05:39:48;3.22;91.18
64034;SHT31;50280;49.864;8.638;2022-12-07T05:42:20;3.22;91.17
64034;SHT31;50280;49.864;8.638;2022-12-07T05:44:52;3.20;91.18
64034;SHT31;50280;49.864;8.638;2022-12-07T05:47:25;3.20;91.29
64034;SHT31;50280;49.864;8.638;2022-12-07T05:49:57;3.19;91.28
64034;SHT31;50280;49.864;8.638;2022-12-07T05:52:30;3.19;91.24
64034;SHT31;50280;49.864;8.638;2022-12-07T05:55:04;3.19;91.09
64034;SHT31;50280;49.864;8.638;2022-12-07T05:57:38;3.20;91.13
64034;SHT31;50280;49.864;8.638;2022-12-07T06:00:11;3.22;91.20
64034;SHT31;50280;49.864;8.638;2022-12-07T06:02:45;3.20;91.28
64034;SHT31;50280;49.864;8.638;2022-12-07T06:05:17;3.23;91.31
64034;SHT31;50280;49.864;8.638;2022-12-07T06:07:50;3.20;91.26
64034;SHT31;50280;49.864;8.638;2022-12-07T06:10:24;3.22;91.03
64034;SHT31;50280;49.864;8.638;2022-12-07T06:12:56;3.23;91.02
64034;SHT31;50280;49.864;8.638;2022-12-07T06:15:28;3.25;91.01
64034;SHT31;50280;49.864;8.638;2022-12-07T06:18:01;3.23;91.04
64034;SHT31;50280;49.864;8.638;2022-12-07T06:20:33;3.23;91.10
64034;SHT31;50280;49.864;8.638;2022-12-07T06:23:05;3.25;91.04
64034;SHT31;50280;49.864;8.638;2022-12-07T06:25:39;3.26;91.02
64034;SHT31;50280;49.864;8.638;2022-12-07T06:28:16;3.27;91.04
64034;SHT31;50280;49.864;8.638;2022-12-07T06:30:56;3.27;90.94
64034;SHT31;50280;49.864;8.638;2022-12-07T06:33:29;3.27;90.96
64034;SHT31;50280;49.864;8.638;2022-12-07T06:36:02;3.29;90.96
64034;SHT31;50280;49.864;8.638;2022-12-07T06:38:35;3.32;90.96
64034;SHT31;50280;49.864;8.638;2022-12-07T06:41:09;3.29;90.89
64034;SHT31;50280;49.864;8.638;2022-12-07T06:43:41;3.30;90.90
64034;SHT31;50280;49.864;8.638;2022-12-07T06:46:14;3.30;90.87
64034;SHT31;50280;49.864;8.638;2022-12-07T06:48:47;3.32;90.71
64034;SHT31;50280;49.864;8.638;2022-12-07T06:51:19;3.32;90.91
64034;SHT31;50280;49.864;8.638;2022-12-07T06:53:52;3.32;90.70
64034;SHT31;50280;49.864;8.638;2022-12-07T06:56:26;3.33;90.62
64034;SHT31;50280;49.864;8.638;2022-12-07T06:58:58;3.35;90.69
64034;SHT31;50280;49.864;8.638;2022-12-07T07:01:31;3.36;90.66
64034;SHT31;50280;49.864;8.638;2022-12-07T07:04:04;3.36;90.69
64034;SHT31;50280;49.864;8.638;2022-12-07T07:06:37;3.39;90.75
64034;SHT31;50280;49.864;8.638;2022-12-07T07:09:09;3.39;90.93
64034;SHT31;50280;49.864;8.638;2022-12-07T07:11:43;3.43;91.13
64034;SHT31;50280;49.864;8.638;2022-12-07T07:14:15;3.46;91.06
64034;SHT31;50280;49.864;8.638;2022-12-07T07:16:47;3.49;90.65
64034;SHT31;50280;49.864;8.638;2022-12-07T07:19:20;3.49;90.53
64034;SHT31;50280;49.864;8.638;2022-12-07T07:21:52;3.49;90.56
64034;SHT31;50280;49.864;8.638;2022-12-07T07:24:26;3.49;90.72
64034;SHT31;50280;49.864;8.638;2022-12-07T07:27:00;3.49;90.77
64034;SHT31;50280;49.864;8.638;2022-12-07T07:29:32;3.46;90.68
64034;SHT31;50280;49.864;8.638;2022-12-07T07:32:04;3.46;90.70
64034;SHT31;50280;49.864;8.638;2022-12-07T07:34:37;3.46;90.68
64034;SHT31;50280;49.864;8.638;2022-12-07T07:37:09;3.44;90.64
64034;SHT31;50280;49.864;8.638;2022-12-07T07:39:42;3.49;90.63
64034;SHT31;50280;49.864;8.638;2022-12-07T07:42:15;3.49;90.67
64034;SHT31;50280;49.864;8.638;2022-12-07T07:44:48;3.46;90.68
64034;SHT31;50280;49.864;8.638;2022-12-07T07:47:20;3.46;90.66
64034;SHT31;50280;49.864;8.638;2022-12-07T07:49:53;3.47;90.71
64034;SHT31;50280;49.864;8.638;2022-12-07T07:52:25;3.49;90.73
64034;SHT31;50280;49.864;8.638;2022-12-07T07:54:58;3.49;90.45
64034;SHT31;50280;49.864;8.638;2022-12-07T07:57:32;3.50;90.45
64034;SHT31;50280;49.864;8.638;2022-12-07T08:00:05;3.53;90.52
64034;SHT31;50280;49.864;8.638;2022-12-07T08:02:43;3.53;90.54
64034;SHT31;50280;49.864;8.638;2022-12-07T08:05:15;3.56;90.62
64034;SHT31;50280;49.864;8.638;2022-12-07T08:07:48;3.56;90.44
64034;SHT31;50280;49.864;8.638;2022-12-07T08:10:21;3.57;90.51
64034;SHT31;50280;49.864;8.638;2022-12-07T08:12:54;3.60;90.44
64034;SHT31;50280;49.864;8.638;2022-12-07T08:15:28;3.61;90.45
64034;SHT31;50280;49.864;8.638;2022-12-07T08:18:02;3.63;90.28
64034;SHT31;50280;49.864;8.638;2022-12-07T08:20:35;3.64;90.21
64034;SHT31;50280;49.864;8.638;2022-12-07T08:23:10;3.66;90.29
64034;SHT31;50280;49.864;8.638;2022-12-07T08:25:43;3.69;90.26
64034;SHT31;50280;49.864;8.638;2022-12-07T08:28:16;3.70;90.40
64034;SHT31;50280;49.864;8.638;2022-12-07T08:30:49;3.71;90.18
64034;SHT31;50280;49.864;8.638;2022-12-07T08:33:21;3.74;90.09
64034;SHT31;50280;49.864;8.638;2022-12-07T08:35:54;3.75;90.10
64034;SHT31;50280;49.864;8.638;2022-12-07T08:38:27;3.80;90.10
64034;SHT31;50280;49.864;8.638;2022-12-07T08:40:59;3.81;90.13
64034;SHT31;50280;49.864;8.638;2022-12-07T08:43:33;3.81;89.99
64034;SHT31;50280;49.864;8.638;2022-12-07T08:46:10;3.82;90.07
64034;SHT31;50280;49.864;8.638;2022-12-07T08:48:54;3.85;89.77
64034;SHT31;50280;49.864;8.638;2022-12-07T08:51:33;3.85;89.71
64034;SHT31;50280;49.864;8.638;2022-12-07T08:54:10;3.84;89.76
64034;SHT31;50280;49.864;8.638;2022-12-07T08:56:47;3.85;89.77
64034;SHT31;50280;49.864;8.638;2022-12-07T08:59:23;3.85;89.80
64034;SHT31;50280;49.864;8.638;2022-12-07T09:01:55;3.87;89.92
64034;SHT31;50280;49.864;8.638;2022-12-07T09:04:28;3.91;89.83
64034;SHT31;50280;49.864;8.638;2022-12-07T09:07:00;3.92;89.70
64034;SHT31;50280;49.864;8.638;2022-12-07T09:09:33;3.95;89.46
64034;SHT31;50280;49.864;8.638;2022-12-07T09:12:05;4.01;89.35
64034;SHT31;50280;49.864;8.638;2022-12-07T09:14:39;4.06;89.01
64034;SHT31;50280;49.864;8.638;2022-12-07T09:17:12;4.09;89.02
64034;SHT31;50280;49.864;8.638;2022-12-07T09:19:45;4.12;88.94
64034;SHT31;50280;49.864;8.638;2022-12-07T09:22:17;4.15;88.71
64034;SHT31;50280;49.864;8.638;2022-12-07T09:24:50;4.20;88.63
64034;SHT31;50280;49.864;8.638;2022-12-07T09:27:22;4.20;88.32
64034;SHT31;50280;49.864;8.638;2022-12-07T09:29:56;4.25;88.41
64034;SHT31;50280;49.864;8.638;2022-12-07T09:32:28;4.29;88.32
64034;SHT31;50280;49.864;8.638;2022-12-07T09:35:01;4.34;88.18
64034;SHT31;50280;49.864;8.638;2022-12-07T09:37:33;4.44;87.97
64034;SHT31;50280;49.864;8.638;2022-12-07T09:40:06;4.56;88.10
64034;SHT31;50280;49.864;8.638;2022-12-07T09:42:42;4.71;87.61
64034;SHT31;50280;49.864;8.638;2022-12-07T09:45:22;4.84;87.08
64034;SHT31;50280;49.864;8.638;2022-12-07T09:48:02;4.95;86.74
64034;SHT31;50280;49.864;8.638;2022-12-07T09:50:36;4.98;85.88
64034;SHT31;50280;49.864;8.638;2022-12-07T09:53:18;4.99;85.49
64034;SHT31;50280;49.864;8.638;2022-12-07T09:56:02;4.92;85.53
64034;SHT31;50280;49.864;8.638;2022-12-07T09:58:37;4.92;85.99
64034;SHT31;50280;49.864;8.638;2022-12-07T10:01:14;4.89;85.76
64034;SHT31;50280;49.864;8.638;2022-12-07T10:03:51;4.85;85.94
64034;SHT31;50280;49.864;8.638;2022-12-07T10:06:30;4.82;85.91
64034;SHT31;50280;49.864;8.638;2022-12-07T10:09:09;4.84;86.23
64034;SHT31;50280;49.864;8.638;2022-12-07T10:11:58;4.87;86.08
64034;SHT31;50280;49.864;8.638;2022-12-07T10:14:34;4.91;86.10
64034;SHT31;50280;49.864;8.638;2022-12-07T10:17:30;4.92;85.88
64034;SHT31;50280;49.864;8.638;2022-12-07T10:20:16;4.95;85.81
64034;SHT31;50280;49.864;8.638;2022-12-07T10:22:58;4.92;86.17
64034;SHT31;50280;49.864;8.638;2022-12-07T10:25:34;4.92;86.43
64034;SHT31;50280;49.864;8.638;2022-12-07T10:28:12;4.91;86.71
64034;SHT31;50280;49.864;8.638;2022-12-07T10:30:54;4.92;86.66
64034;SHT31;50280;49.864;8.638;2022-12-07T10:33:35;4.92;86.84
64034;SHT31;50280;49.864;8.638;2022-12-07T10:36:18;4.96;86.68
64034;SHT31;50280;49.864;8.638;2022-12-07T10:38:59;5.02;86.57
64034;SHT31;50280;49.864;8.638;2022-12-07T10:41:35;5.11;86.52
64034;SHT31;50280;49.864;8.638;2022-12-07T10:44:20;5.27;86.13
64034;SHT31;50280;49.864;8.638;2022-12-07T10:47:03;5.47;85.31
64034;SHT31;50280;49.864;8.638;2022-12-07T10:50:17;5.58;84.54
64034;SHT31;50280;49.864;8.638;2022-12-07T10:53:28;5.64;83.77
64034;SHT31;50280;49.864;8.638;2022-12-07T10:56:56;5.68;83.30
64034;SHT31;50280;49.864;8.638;2022-12-07T11:00:07;5.68;83.02
64034;SHT31;50280;49.864;8.638;2022-12-07T11:02:57;5.70;83.13
64034;SHT31;50280;49.864;8.638;2022-12-07T11:06:04;5.79;83.09
64034;SHT31;50280;49.864;8.638;2022-12-07T11:09:00;5.88;82.46
64034;SHT31;50280;49.864;8.638;2022-12-07T11:12:10;5.94;81.51
64034;SHT31;50280;49.864;8.638;2022-12-07T11:14:58;5.94;80.89
64034;SHT31;50280;49.864;8.638;2022-12-07T11:17:49;5.95;81.30
64034;SHT31;50280;49.864;8.638;2022-12-07T11:20:41;5.98;79.85
64034;SHT31;50280;49.864;8.638;2022-12-07T11:23:32;6.02;79.69
64034;SHT31;50280;49.864;8.638;2022-12-07T11:26:29;6.07;78.71
64034;SHT31;50280;49.864;8.638;2022-12-07T11:29:34;6.10;78.17
64034;SHT31;50280;49.864;8.638;2022-12-07T11:32:37;6.15;78.29
64034;SHT31;50280;49.864;8.638;2022-12-07T11:35:35;6.19;77.60
64034;SHT31;50280;49.864;8.638;2022-12-07T11:38:24;6.29;77.30
64034;SHT31;50280;49.864;8.638;2022-12-07T11:41:19;6.33;77.37
64034;SHT31;50280;49.864;8.638;2022-12-07T11:44:04;6.33;77.45
64034;SHT31;50280;49.864;8.638;2022-12-07T11:47:00;6.37;77.44
64034;SHT31;50280;49.864;8.638;2022-12-07T11:49:45;6.34;77.77
64034;SHT31;50280;49.864;8.638;2022-12-07T11:52:30;6.30;77.45
64034;SHT31;50280;49.864;8.638;2022-12-07T11:55:21;6.23;76.55
64034;SHT31;50280;49.864;8.638;2022-12-07T11:58:05;6.16;76.38
64034;SHT31;50280;49.864;8.638;2022-12-07T12:01:11;6.10;76.62
64034;SHT31;50280;49.864;8.638;2022-12-07T12:04:12;6.03;77.08
64034;SHT31;50280;49.864;8.638;2022-12-07T12:06:59;5.99;76.73
64034;SHT31;50280;49.864;8.638;2022-12-07T12:09:35;5.98;76.95
64034;SHT31;50280;49.864;8.638;2022-12-07T12:12:35;5.91;76.65
64034;SHT31;50280;49.864;8.638;2022-12-07T12:15:57;5.87;77.29
64034;SHT31;50280;49.864;8.638;2022-12-07T12:18:58;5.87;77.50
64034;SHT31;50280;49.864;8.638;2022-12-07T12:22:06;5.87;77.47
64034;SHT31;50280;49.864;8.638;2022-12-07T12:24:49;5.89;77.13
64034;SHT31;50280;49.864;8.638;2022-12-07T12:27:30;5.88;76.90
64034;SHT31;50280;49.864;8.638;2022-12-07T12:30:30;5.87;77.21
64034;SHT31;50280;49.864;8.638;2022-12-07T12:33:14;5.87;77.50
64034;SHT31;50280;49.864;8.638;2022-12-07T12:39:18;5.92;77.04
64034;SHT31;50280;49.864;8.638;2022-12-07T12:41:53;5.89;77.17
64034;SHT31;50280;49.864;8.638;2022-12-07T12:45:04;5.89;77.52
64034;SHT31;50280;49.864;8.638;2022-12-07T12:47:56;5.88;77.62
64034;SHT31;50280;49.864;8.638;2022-12-07T12:50:31;5.89;77.67
64034;SHT31;50280;49.864;8.638;2022-12-07T12:53:15;5.92;77.64
64034;SHT31;50280;49.864;8.638;2022-12-07T12:56:28;5.94;77.87
64034;SHT31;50280;49.864;8.638;2022-12-07T12:59:23;5.94;77.90
64034;SHT31;50280;49.864;8.638;2022-12-07T13:02:16;5.94;78.44
64034;SHT31;50280;49.864;8.638;2022-12-07T13:04:56;5.91;79.12
64034;SHT31;50280;49.864;8.638;2022-12-07T13:07:52;5.89;80.21
64034;SHT31;50280;49.864;8.638;2022-12-07T13:10:48;5.84;80.02
64034;SHT31;50280;49.864;8.638;2022-12-07T13:13:35;5.78;80.15
64034;SHT31;50280;49.864;8.638;2022-12-07T13:16:37;5.75;80.73
64034;SHT31;50280;49.864;8.638;2022-12-07T13:22:46;5.43;83.38
64034;SHT31;50280;49.864;8.638;2022-12-07T13:25:36;5.33;84.90
64034;SHT31;50280;49.864;8.638;2022-12-07T13:28:21;5.32;85.26
64034;SHT31;50280;49.864;8.638;2022-12-07T13:31:04;5.29;85.22
64034;SHT31;50280;49.864;8.638;2022-12-07T13:33:48;5.26;86.04
64034;SHT31;50280;49.864;8.638;2022-12-07T13:36:24;5.25;85.95
64034;SHT31;50280;49.864;8.638;2022-12-07T13:39:11;5.27;85.98
64034;SHT31;50280;49.864;8.638;2022-12-07T13:41:52;5.44;85.44
64034;SHT31;50280;49.864;8.638;2022-12-07T13:44:27;5.51;85.54
64034;SHT31;50280;49.864;8.638;2022-12-07T13:47:11;5.62;84.31
64034;SHT31;50280;49.864;8.638;2022-12-07T13:49:52;5.87;83.27
64034;SHT31;50280;49.864;8.638;2022-12-07T13:52:30;6.10;83.26
64034;SHT31;50280;49.864;8.638;2022-12-07T13:55:16;6.20;81.35
64034;SHT31;50280;49.864;8.638;2022-12-07T13:57:51;6.20;81.27
64034;SHT31;50280;49.864;8.638;2022-12-07T14:00:28;6.19;80.95
64034;SHT31;50280;49.864;8.638;2022-12-07T14:03:04;6.13;81.34
64034;SHT31;50280;49.864;8.638;2022-12-07T14:09:19;6.01;81.93
64034;SHT31;50280;49.864;8.638;2022-12-07T14:11:55;5.95;82.05
64034;SHT31;50280;49.864;8.638;2022-12-07T14:14:31;5.89;82.56
64034;SHT31;50280;49.864;8.638;2022-12-07T14:17:12;5.82;83.29
64034;SHT31;50280;49.864;8.638;2022-12-07T14:19:51;5.79;83.47
64034;SHT31;50280;49.864;8.638;2022-12-07T14:22:29;5.74;83.40
64034;SHT31;50280;49.864;8.638;2022-12-07T14:25:21;5.71;83.70
64034;SHT31;50280;49.864;8.638;2022-12-07T14:27:55;5.68;83.71
64034;SHT31;50280;49.864;8.638;2022-12-07T14:30:32;5.65;83.45
64034;SHT31;50280;49.864;8.638;2022-12-07T14:33:08;5.64;83.25
64034;SHT31;50280;49.864;8.638;2022-12-07T14:35:41;5.65;83.31
64034;SHT31;50280;49.864;8.638;2022-12-07T14:38:13;5.61;83.87
64034;SHT31;50280;49.864;8.638;2022-12-07T14:40:47;5.61;83.72
64034;SHT31;50280;49.864;8.638;2022-12-07T14:43:20;5.58;83.88
64034;SHT31;50280;49.864;8.638;2022-12-07T14:45:53;5.58;83.62
64034;SHT31;50280;49.864;8.638;2022-12-07T14:48:25;5.60;83.81
64034;SHT31;50280;49.864;8.638;2022-12-07T14:50:58;5.55;83.60
64034;SHT31;50280;49.864;8.638;2022-12-07T14:53:34;5.58;83.64
64034;SHT31;50280;49.864;8.638;2022-12-07T14:56:14;5.54;82.89
64034;SHT31;50280;49.864;8.638;2022-12-07T14:58:46;5.54;82.32
64034;SHT31;50280;49.864;8.638;2022-12-07T15:01:18;5.53;81.71
64034;SHT31;50280;49.864;8.638;2022-12-07T15:03:51;5.54;81.10
64034;SHT31;50280;49.864;8.638;2022-12-07T15:06:23;5.51;80.61
64034;SHT31;50280;49.864;8.638;2022-12-07T15:08:56;5.55;80.59
64034;SHT31;50280;49.864;8.638;2022-12-07T15:11:30;5.55;79.60
64034;SHT31;50280;49.864;8.638;2022-12-07T15:14:02;5.54;79.83
64034;SHT31;50280;49.864;8.638;2022-12-07T15:16:36;5.54;79.37
64034;SHT31;50280;49.864;8.638;2022-12-07T15:19:12;5.57;79.42
64034;SHT31;50280;49.864;8.638;2022-12-07T15:21:47;5.53;80.18
64034;SHT31;50280;49.864;8.638;2022-12-07T15:24:20;5.48;80.67
64034;SHT31;50280;49.864;8.638;2022-12-07T15:26:54;5.42;81.17
64034;SHT31;50280;49.864;8.638;2022-12-07T15:29:26;5.36;80.81
64034;SHT31;50280;49.864;8.638;2022-12-07T15:31:59;5.25;81.01
64034;SHT31;50280;49.864;8.638;2022-12-07T15:34:31;5.19;81.74
64034;SHT31;50280;49.864;8.638;2022-12-07T15:37:03;5.12;82.39
64034;SHT31;50280;49.864;8.638;2022-12-07T15:39:36;5.11;82.64
64034;SHT31;50280;49.864;8.638;2022-12-07T15:42:10;5.05;83.42
64034;SHT31;50280;49.864;8.638;2022-12-07T15:44:43;5.04;83.71
64034;SHT31;50280;49.864;8.638;2022-12-07T15:47:15;4.99;84.68
64034;SHT31;50280;49.864;8.638;2022-12-07T15:49:47;5.02;85.02
64034;SHT31;50280;49.864;8.638;2022-12-07T15:52:20;4.99;85.27
64034;SHT31;50280;49.864;8.638;2022-12-07T15:54:53;4.93;84.73
64034;SHT31;50280;49.864;8.638;2022-12-07T15:57:27;4.92;84.90
64034;SHT31;50280;49.864;8.638;2022-12-07T15:59:59;4.92;85.08
64034;SHT31;50280;49.864;8.638;2022-12-07T16:02:32;4.92;85.55
64034;SHT31;50280;49.864;8.638;2022-12-07T16:05:05;4.88;85.70
64034;SHT31;50280;49.864;8.638;2022-12-07T16:07:38;4.88;85.96
64034;SHT31;50280;49.864;8.638;2022-12-07T16:10:11;4.88;85.21
64034;SHT31;50280;49.864;8.638;2022-12-07T16:12:44;4.91;84.65
64034;SHT31;50280;49.864;8.638;2022-12-07T16:15:17;4.88;84.74
64034;SHT31;50280;49.864;8.638;2022-12-07T16:17:49;4.87;84.03
64034;SHT31;50280;49.864;8.638;2022-12-07T16:20:22;4.91;84.11
64034;SHT31;50280;49.864;8.638;2022-12-07T16:22:54;4.91;84.46
64034;SHT31;50280;49.864;8.638;2022-12-07T16:25:27;4.92;84.73
64034;SHT31;50280;49.864;8.638;2022-12-07T16:28:01;4.92;84.68
64034;SHT31;50280;49.864;8.638;2022-12-07T16:30:33;4.93;85.27
64034;SHT31;50280;49.864;8.638;2022-12-07T16:33:06;4.91;85.45
64034;SHT31;50280;49.864;8.638;2022-12-07T16:35:39;4.92;85.87
64034;SHT31;50280;49.864;8.638;2022-12-07T16:38:12;4.89;85.02
64034;SHT31;50280;49.864;8.638;2022-12-07T16:40:44;4.88;84.68
64034;SHT31;50280;49.864;8.638;2022-12-07T16:43:20;4.85;85.15
64034;SHT31;50280;49.864;8.638;2022-12-07T16:45:53;4.84;84.83
64034;SHT31;50280;49.864;8.638;2022-12-07T16:48:25;4.81;84.94
64034;SHT31;50280;49.864;8.638;2022-12-07T16:51:02;4.78;84.69
64034;SHT31;50280;49.864;8.638;2022-12-07T16:53:38;4.75;84.11
64034;SHT31;50280;49.864;8.638;2022-12-07T16:56:15;4.71;84.30
64034;SHT31;50280;49.864;8.638;2022-12-07T16:58:49;4.70;84.34
64034;SHT31;50280;49.864;8.638;2022-12-07T17:01:22;4.65;84.29
64034;SHT31;50280;49.864;8.638;2022-12-07T17:03:56;4.65;84.37
64034;SHT31;50280;49.864;8.638;2022-12-07T17:06:29;4.60;83.99
64034;SHT31;50280;49.864;8.638;2022-12-07T17:09:02;4.60;84.37